Time;durP1;ratioP1;P1;durP2;ratioP2;P2;SDS_P1;SDS_P2;PMS_P1;PMS_P2;Temp;Humidity;BMP_temperature;BMP_pressure;BME280_temperature;BME280_humidity;BME280_pressure;Samples;Min_cycle;Max_cycle;Signal;HPM_P1;HPM_P2
2021/08/14 05:46:11;;;;;;;11.27;10.40;;;;;;;27.56;49.55;95133.97;828190;71;29994;-76
2021/08/14 06:01:18;;;;;;;12.43;11.40;;;;;;;28.02;48.32;95138.70;835567;71;32845;-76
2021/08/14 06:16:12;;;;;;;13.37;12.13;;;;;;;27.70;49.41;165977.39;827817;71;30090;-74
2021/08/14 09:16:19;;;;;;;13.77;12.20;;;;;;;29.40;37.12;95077.83;827810;71;30165;-77
2021/08/14 09:31:14;;;;;;;13.03;12.00;;;;;;;29.67;35.72;95068.00;833536;71;32040;-75
2021/08/14 09:46:09;;;;;;;12.57;11.53;;;;;;;30.05;35.14;95060.58;828100;71;29540;-76
2021/08/14 10:01:20;;;;;;;14.07;12.67;;;;;;;29.90;34.68;95043.70;827275;71;33192;-78
2021/08/14 10:16:10;;;;;;;13.50;12.40;;;;;;;30.25;33.66;95030.45;834254;71;29602;-75
2021/08/14 10:31:09;;;;;;;14.80;13.50;;;;;;;30.08;34.33;95017.83;828139;71;28713;-75
2021/08/14 10:46:34;;;;;;;14.67;13.37;;;;;;;30.23;34.40;95000.29;812277;71;28380;-77
2021/08/14 11:01:32;;;;;;;14.13;13.03;;;;;;;30.84;33.92;94972.52;827182;71;31778;-76
2021/08/14 11:16:16;;;;;;;14.17;13.07;;;;;;;30.65;33.58;94971.79;827931;71;31709;-78
2021/08/14 11:31:11;;;;;;;14.70;13.57;;;;;;;30.91;33.25;94961.59;829325;70;28835;-76
2021/08/14 11:46:26;;;;;;;13.90;12.70;;;;;;;30.71;33.13;94951.20;820655;71;32241;-77
2021/08/14 12:01:16;;;;;;;13.40;12.30;;;;;;;31.01;32.19;94935.52;834066;71;28930;-76
2021/08/14 12:02:25;;;;;;;12.53;11.37;;;;;;;30.94;32.25;94941.82;821775;72;25914;-76
2021/08/14 12:16:21;;;;;;;12.90;11.73;;;;;;;31.12;31.63;94938.07;828131;71;31062;-77
2021/08/14 12:31:25;;;;;;;13.30;11.87;;;;;;;31.41;31.13;94909.14;834075;71;28744;-78
2021/08/14 12:46:44;;;;;;;10.60;9.70;;;;;;;30.34;31.86;94902.70;829028;71;31723;-77
2021/08/14 13:01:21;;;;;;;9.00;8.20;;;;;;;30.92;30.76;94864.21;828340;71;28764;-74
2021/08/14 13:16:23;;;;;;;9.00;8.30;;;;;;;31.15;30.31;94881.67;828362;71;31076;-77
2021/08/14 13:31:16;;;;;;;9.53;8.83;;;;;;;31.04;30.93;94872.93;828245;71;28645;-77
2021/08/14 13:46:15;;;;;;;8.90;8.10;;;;;;;31.46;30.46;94870.14;827981;71;29871;-78
2021/08/14 14:01:13;;;;;;;8.20;7.60;;;;;;;30.60;31.87;94844.33;833899;71;29273;-78
2021/08/14 14:16:10;;;;;;;8.63;7.93;;;;;;;30.50;32.35;94843.89;828954;71;28587;-81
2021/08/14 14:31:34;;;;;;;8.63;7.93;;;;;;;30.54;32.05;94848.67;827274;71;32258;-76
2021/08/14 14:46:21;;;;;;;8.80;8.10;;;;;;;29.88;32.95;94833.02;828229;71;29451;-76
2021/08/14 15:16:14;;;;;;;8.77;8.17;;;;;;;29.69;32.63;94820.84;835078;71;31616;-76
2021/08/14 15:31:15;;;;;;;8.63;8.00;;;;;;;29.47;33.58;94817.58;827529;71;31719;-75
2021/08/14 15:46:09;;;;;;;8.83;8.13;;;;;;;29.46;33.14;94810.66;828169;71;28742;-75
2021/08/14 16:01:09;;;;;;;9.20;8.50;;;;;;;29.19;34.38;94813.80;833444;71;29403;-77
2021/08/14 16:16:18;;;;;;;8.70;8.00;;;;;;;28.94;34.34;94816.88;828107;71;28604;-76
2021/08/14 16:31:23;;;;;;;8.80;8.10;;;;;;;28.59;34.71;94814.42;833913;71;32149;-76
2021/08/14 16:46:15;;;;;;;9.07;8.30;;;;;;;28.28;34.96;94826.34;834403;71;30048;-75
2021/08/14 17:01:45;;;;;;;8.57;7.87;;;;;;;27.87;35.34;94820.94;828194;71;26450;-77
2021/08/14 17:16:16;;;;;;;10.27;9.37;;;;;;;27.50;36.62;94825.04;827706;71;31827;-77
2021/08/14 17:31:21;;;;;;;10.57;9.67;;;;;;;;;;834024;71;28281;-75
2021/08/14 18:01:24;;;;;;;8.80;8.10;;;;;;;17.27;38.72;93438.11;827556;71;31730;-76
2021/08/14 18:16:19;;;;;;;9.63;8.73;;;;;;;;;;828056;71;30914;-75
2021/08/14 18:32:04;;;;;;;10.30;9.40;;;;;;;;;;807242;72;31997;-80
2021/08/14 18:46:25;;;;;;;9.30;8.60;;;;;;;26.49;39.39;94886.55;828402;71;31821;-79
2021/08/14 19:32:02;;;;;;;9.97;9.17;;;;;;;25.92;42.48;94885.17;834132;71;26015;-77
2021/08/14 19:46:44;;;;;;;10.07;9.13;;;;;;;26.36;41.64;94876.71;816474;72;32304;-77
2021/08/14 20:02:08;;;;;;;9.73;8.93;;;;;;;26.64;41.33;94871.22;770766;71;32708;-79
2021/08/14 20:16:20;;;;;;;10.90;9.90;;;;;;;26.22;41.36;94868.02;827435;71;30896;-77
2021/08/14 20:32:04;;;;;;;10.20;9.40;;;;;;;26.16;41.53;94865.49;815978;69;31048;-76
2021/08/14 21:16:21;;;;;;;8.80;8.10;;;;;;;26.30;41.46;94852.09;828037;71;32701;-76
2021/08/14 21:31:58;;;;;;;9.83;9.03;;;;;;;;;;780822;71;33216;-73
2021/08/14 21:46:08;;;;;;;10.50;9.50;;;;;;;26.80;41.94;94850.66;833838;71;29500;-76
2021/08/14 22:01:14;;;;;;;10.40;9.40;;;;;;;26.81;41.84;94863.00;834072;71;32763;-77
2021/08/14 22:31:32;;;;;;;12.30;11.27;;;;;;;;;;766208;76;32587;-78
2021/08/14 22:46:47;;;;;;;12.17;11.07;;;;;;;26.67;42.52;94838.16;803682;74;32917;-75
2021/08/14 23:01:08;;;;;;;11.97;10.97;;;;;;;26.55;42.52;94831.19;834102;71;29928;-76
2021/08/14 23:16:59;;;;;;;12.07;10.97;;;;;;;26.60;42.57;123554.15;796812;69;33084;-77
2021/08/14 23:31:11;;;;;;;11.57;10.57;;;;;;;26.50;42.55;94824.27;828264;71;30081;-75
